Ship Status Report: callsign NXXG

sailwx.info

Track history (hours):
 
Tides and Currents Weather Stations Pressure Air Temp Water Temp Dewpoint Dewpoint Depression Visibility Wind Speed Wind Dir Waves Ship Positions

Callsign NXXG (name unknown)

Last reported at 2018-Mar-27 01:30 UTC. Time now 2018-Jun-25 05:54 UTC.
Position N 31°24' E 032°22'.
Warning: this ship's position is months out of date.

AWS

Date/timePositionNaut miles runAvg speedWind from/ knotsBaromVisibWave heightAir tempDewpointWater temp
2018-Mar-27 01:30N 31°24' E 032°22'2 3.2
2018-Mar-27 01:00N 31°25' E 032°20'5 3.1
2018-Mar-26 23:28N 31°25' E 032°15'18 3.7
2018-Mar-26 18:39N 31°40' E 032°03'2 9.0
2018-Mar-26 18:28N 31°41' E 032°01'  
2018-Mar-22 09:30N 34°39' E 033°03'1 2.2
2018-Mar-22 09:00N 34°39' E 033°01'0 0.1
2018-Mar-22 08:30N 34°39' E 033°01'  
2018-Mar-18 08:19N 32°53' E 034°56'  
Track history (hours):
 
Tides and Currents Weather Stations Pressure Air Temp Water Temp Dewpoint Dewpoint Depression Visibility Wind Speed Wind Dir Waves Ship Positions

Callsign NXXG (name unknown)

Last reported at 2018-Mar-27 01:30 UTC. Time now 2018-Jun-25 05:54 UTC.
Position N 31°24' E 032°22'.
Warning: this ship's position is months out of date.

AWS

Date/timePositionNaut miles runAvg speedWind from/ knotsBaromVisibWave heightAir tempDewpointWater temp
2018-Mar-27 01:30N 31°24' E 032°22'2 3.2
2018-Mar-27 01:00N 31°25' E 032°20'5 3.1
2018-Mar-26 23:28N 31°25' E 032°15'18 3.7
2018-Mar-26 18:39N 31°40' E 032°03'2 9.0
2018-Mar-26 18:28N 31°41' E 032°01'  
2018-Mar-22 09:30N 34°39' E 033°03'1 2.2
2018-Mar-22 09:00N 34°39' E 033°01'0 0.1
2018-Mar-22 08:30N 34°39' E 033°01'  
2018-Mar-18 08:19N 32°53' E 034°56'  

Dump ship's entire track history